Aviation Digital Data Service (ADDS)

Output produced by METARs form (1208 UTC 30 July 2015)
found at http://aviationweather.gov/adds/metars/
 
KFRG 301153Z 22010KT 10SM FEW033 26/22 A2993 RMK AO2 SLP134 T02610217 10261 20244 50003
KISP 301156Z 21009KT 10SM FEW013 SCT037 SCT100 BKN200 BKN280 26/22 A2991
KISP 301144Z 3012/3112 21010KT P6SM FEW010 SCT035 BKN250 
     TEMPO 3015/3016 6SM -SHRA BKN040 
     FM301600 20015G21KT P6SM SCT050 BKN250 
     FM302200 21012KT P6SM BKN050 
     TEMPO 3022/3024 3SM TSRA BKN030CB 
     FM310000 22010KT 6SM -SHRA BR BKN040 
     FM310300 24006KT P6SM SCT050 BKN080 
     FM310600 28005KT 6SM BR FEW080 
     FM310800 VRB03KT P6SM SKC
       
KJFK 301151Z 20010KT 10SM FEW032 SCT095 BKN160 BKN250 26/22 A2993 RMK AO2 SLP134 TCU DSNT SE AND DSNT SW T02610217 10261 20244 51003
KJFK 301137Z 3012/3118 21010KT P6SM FEW030 BKN090 BKN250 
     TEMPO 3013/3014 6SM -SHRA SCT025 BKN035 
     FM301500 20016KT P6SM SCT050 BKN250 
     TEMPO 3021/3023 3SM TSRA BKN030CB 
     FM302300 22012KT 6SM -SHRA BKN040 
     FM310100 23009KT P6SM SCT050 BKN080 
     FM310400 28007KT P6SM FEW080 
     FM310600 31007KT P6SM SKC 
     FM311600 28010KT P6SM SKC
       
KBDR 301152Z 23006KT 7SM SCT019 BKN085 26/23 A2991 RMK AO2 SLP129 T02560228 10261 20250 53002
KBDR 301144Z 3012/3112 22009KT 6SM HZ FEW030 SCT090 BKN250 
     FM301600 22011KT P6SM SCT050 BKN250 
     FM302200 20010KT P6SM BKN050 
     TEMPO 3022/3024 3SM TSRA BKN030CB 
     FM310000 22007KT 6SM -SHRA BR BKN040 
     FM310300 24006KT P6SM SCT050 BKN080 
     FM310600 29004KT 6SM BR FEW080 
     FM310800 VRB03KT P6SM SKC